WEATHER DATA

TODAY
Time Temp. Dewp. Hum. Wind dir Wind speed Wind gust Bar. 1h Prec. 24h Prec.
00:03 13.1 10.3 83 335 0.3 1.1 1030 0.0000 0.0000
00:22 13.1 10.3 83 315 0.3 1.1 1030 0.0000 0.0000
00:33 13.1 10.3 83 310 0.3 1.4 1029.9 0.0000 0.0000
00:43 13 10.2 83 327 0.3 1.1 1029.9 0.0000 0.0000
01:03 13 10.2 83 323 0.3 1.1 1029.7 0.0000 0.0000
01:13 13 10.2 83 315 0.3 1.1 1029.9 0.0000 0.0000
01:23 13 10.2 83 319 0.3 1.1 1029.8 0.0000 0.0000
01:33 13 10.2 83 315 0.3 1.1 1029.8 0.0000 0.0000
01:43 13.1 10.3 83 318 0.3 1.4 1029.7 0.0000 0.0000
01:53 13.1 10.3 83 315 0.3 1.4 1029.7 0.0000 0.0000
02:03 13 10.2 83 341 0.3 1.4 1029.8 0.0000 0.0000
02:14 13 10.2 83 324 0.3 1.1 1029.7 0.0000 0.0000
02:24 12.9 10.1 83 320 0.3 1.1 1029.6 0.0000 0.0000
02:33 12.8 10 83 315 0.3 1.4 1029.6 0.0000 0.0000
02:43 12.8 10 83 320 0.3 1.4 1029.7 0.0000 0.0000
02:54 12.8 10.2 84 327 0.3 1.1 1029.6 0.0000 0.0000
03:04 12.7 9.9 83 330 0.3 1.1 1029.5 0.0000 0.0000
03:13 12.7 9.9 83 336 0.3 0.8 1029.6 0.0000 0.0000
03:24 12.7 10.1 84 59 0.3 1.1 1029.3 0.0000 0.0000
03:34 12.6 10 84 26 0.3 0.8 1029.4 0.0000 0.0000
03:44 12.6 10 84 45 0.3 1.1 1029.2 0.0000 0.0000
03:54 12.6 10 84 329 0.3 1.1 1029.1 0.0000 0.0000
04:04 12.5 9.9 84 315 0.3 1.1 1029.1 0.0000 0.0000
04:14 12.5 9.9 84 315 0.3 1.1 1029.1 0.0000 0.0000
04:24 12.5 9.9 84 323 0.3 0.8 1029.1 0.0000 0.0000
04:35 12.4 9.8 84 90 0.3 0.8 1029 0.0000 0.0000
04:44 12.4 9.8 84 90 0.3 0.8 1029.1 0.0000 0.0000
04:54 12.4 9.8 84 90 0.3 0.8 1029.1 0.0000 0.0000
05:04 12.4 9.8 84 90 0.3 1.1 1029 0.0000 0.0000
05:15 12.3 9.7 84 90 0.3 0.8 1029 0.0000 0.0000
05:25 12.3 9.7 84 90 0.3 0.8 1029.1 0.0000 0.0000
05:34 12.2 9.8 85 90 0.3 0.8 1029 0.0000 0.0000
05:45 12.2 9.8 85 90 0.3 0.8 1029 0.0000 0.0000
05:55 12.2 9.8 85 344 0.3 0.8 1029 0.0000 0.0000
06:05 12.1 9.7 85 341 0.3 0.8 1028.9 0.0000 0.0000
06:15 12.1 9.7 85 330 0.3 0.8 1028.8 0.0000 0.0000
06:25 12.1 9.7 85 315 0.3 1.1 1028.7 0.0000 0.0000
06:35 12.1 9.7 85 90 0.3 0.8 1028.5 0.0000 0.0000
06:45 12.1 9.5 84 90 0.3 0.8 1028.6 0.0000 0.0000
06:56 12 9.4 84 90 0.3 0.8 1028.7 0.0000 0.0000
07:05 11.9 9.3 84 335 0.3 0.8 1028.7 0.0000 0.0000
07:15 11.8 9.2 84 90 0.3 1.1 1028.6 0.0000 0.0000
07:25 11.8 9.4 85 0 0.3 0.8 1028.7 0.0000 0.0000
07:36 11.7 9.3 85 90 0.3 0.8 1028.8 0.0000 0.0000
07:46 11.6 9.2 85 90 0.3 0.8 1028.7 0.0000 0.0000
07:55 11.6 9.2 85 90 0.3 0.8 1028.8 0.0000 0.0000
08:06 11.6 9.2 85 330 0.3 0.8 1028.9 0.0000 0.0000
08:16 11.6 9.3 86 351 0.3 0.8 1028.8 0.0000 0.0000
08:26 11.7 9.4 86 90 0.3 0.8 1028.7 0.0000 0.0000
08:46 11.9 9.6 86 90 0.3 0.8 1028.8 0.0000 0.0000
08:56 12.1 10 87 90 0.3 0.8 1028.7 0.0000 0.0000
09:16 12.7 10.4 86 90 0.3 1.4 1028.5 0.0000 0.0000
09:26 13.1 10.6 85 90 0.3 1.4 1028.1 0.0000 0.0000
09:46 13.8 10.8 82 90 0.3 1.1 1028 0.0000 0.0000
09:57 14.1 10.7 80 135 0.3 1.1 1027.7 0.0000 0.0000
10:06 14.2 10.4 78 191 0.3 1.9 1027.8 0.0000 0.0000
10:16 14.4 10.2 76 68 0.8 2.2 1027.6 0.0000 0.0000
10:27 14.6 10.2 75 90 0.3 1.4 1027.6 0.0000 0.0000
10:37 14.8 10.2 74 71 0.8 2.8 1027.4 0.0000 0.0000
10:47 14.9 10.3 74 135 0.3 1.9 1027.3 0.0000 0.0000
10:57 15.1 10.3 73 64 0.8 2.5 1027 0.0000 0.0000
11:07 15.2 10.2 72 71 1.1 3.3 1026.8 0.0000 0.0000
11:17 15.3 10.3 72 68 0.8 1.9 1026.7 0.0000 0.0000
11:27 15.4 10.4 72 90 0.3 1.9 1026.6 0.0000 0.0000
11:37 15.5 10.5 72 52 0.8 2.2 1026.4 0.0000 0.0000
11:47 15.7 10.5 71 52 0.8 2.2 1026.4 0.0000 0.0000
11:57 15.8 10.6 71 56 0.3 1.4 1026.3 0.0000 0.0000
12:07 15.9 10.7 71 270 0.3 1.4 1026.3 0.0000 0.0000
12:18 16 10.5 70 66 0.8 2.2 1026.2 0.0000 0.0000
12:27 16.1 10.6 70 67 0.8 1.4 1025.9 0.0000 0.0000
12:37 16.2 10.7 70 45 0.3 1.4 1025.7 0.0000 0.0000
12:48 16.4 10.7 69 90 0.3 1.4 1025.4 0.0000 0.0000
12:58 16.5 10.8 69 90 0.3 1.4 1025.4 0.0000 0.0000
13:07 16.7 11 69 56 0.3 1.1 1025.3 0.0000 0.0000
13:18 16.9 11.2 69 90 0.3 1.4 1025 0.0000 0.0000
13:28 17 11.1 68 90 0.3 2.2 1024.8 0.0000 0.0000
13:38 17.2 11.2 68 225 0.3 1.4 1024.8 0.0000 0.0000
13:48 17.3 11.3 68 90 0.3 1.4 1024.6 0.0000 0.0000
13:58 17.5 11.5 68 45 0.3 2.5 1024.3 0.0000 0.0000
14:08 17.5 11.5 68 293 0.8 2.5 1024.3 0.0000 0.0000
14:18 17.6 11.6 68 315 0.3 1.9 1023.9 0.0000 0.0000
14:28 17.6 11.6 68 270 0.8 1.9 1023.9 0.0000 0.0000
14:38 17.6 11.6 68 90 0.3 1.9 1023.5 0.0000 0.0000
14:48 17.6 11.6 68 90 0.3 1.1 1023.4 0.0000 0.0000
14:58 17.6 11.6 68 270 0.3 1.4 1023.6 0.0000 0.0000
15:09 17.5 11.5 68 285 0.8 2.2 1023.6 0.0000 0.0000
15:19 17.4 11.4 68 270 0.3 1.9 1023.5 0.0000 0.0000
15:28 17.3 11.3 68 270 0.3 1.9 1023.7 0.0000 0.0000
15:38 17.1 11.2 68 135 0.3 1.1 1023.5 0.0000 0.0000
15:49 16.9 11.2 69 45 0.3 1.1 1023.7 0.0000 0.0000
15:59 16.8 11.1 69 90 0.3 1.4 1023.6 0.0000 0.0000
16:08 16.6 11.1 70 90 0.3 0.8 1023.5 0.0000 0.0000
16:19 16.4 10.9 70 90 0.3 1.1 1023.4 0.0000 0.0000
16:29 16.1 10.8 71 90 0.3 1.1 1023.5 0.0000 0.0000
16:39 15.8 10.8 72 90 0.3 0.8 1023.4 0.0000 0.0000
16:49 15.5 10.7 73 90 0.3 0.8 1023.6 0.0000 0.0000
16:59 15.2 10.4 73 90 0.3 1.1 1023.3 0.0000 0.0000
17:09 14.8 10.2 74 90 0.3 1.1 1023.1 0.0000 0.0000
17:19 14.4 10 75 90 0.3 1.1 1023.2 0.0000 0.0000
17:30 14.1 9.9 76 90 0.3 1.1 1023.2 0.0000 0.0000
17:39 13.8 9.8 77 90 0.3 0.8 1023.2 0.0000 0.0000

DAY STATISTIC

2020-10-31
TEMPERATURE
AVERAGE
14.2
HIGH
17.6
14:18
LOW
11.6
07:46
PRESSURE
AVERAGE
1027.2
HIGH
1030.0
00:03
LOW
1023.1
17:09
DEWPOINT
AVERAGE
10.3
HIGH
11.6
14:18
LOW
9.2
07:15
HUMIDITY
AVERAGE
78
HIGH
87
08:56
LOW
68
13:28
WIND SPEED
AVERAGE
0.4
HIGH
1.1
11:07
WIND GUST
AVERAGE
1.3
HIGH
3.3
11:07
WIND DIRECTION
PREVAILING
E
44.6%
N
5.0
NE
12.9
E
44.6
SE
3.0
S
1.0
SW
1.0
W
5.9
NW
26.7
PRECIPITATION
RAIN HOUR
0.0
RAIN DAY
0.0
TEMPERATURE (°C)
LOW
11.6
HIGH
17.6
AVERAGE
14.2
PRESSURE (hpa)
LOW
1023.1
HIGH
1030.0
AVERAGE
1027.2
DEVICE